Airfield :
LOGIN :

Register | Disclaimer

   EN    FR    IT 

 










Legend :    VFR   Marginal VFR   IFR   Intensive IFR   Very Intensive IFR
Visi :
Ceiling :
>= 8 km
>= 3000ft
5 to 8 km
1000 to 3000 ft
1500m to 5 km
500 to 1000 ft
800 to 1500m
200 to 500 ft
< 800m
< 200 ft
Symbols :   Thunderstorms  Fog  Heavy snow  Heavy precipitations  Wind > 20 kt
SIGMETs :     Misc.  Thunderstorms  Icing  Turbulence  Mountain Waves  Volcanic Ashes






- Airport Elevation : 83 ft
- IATA code : LHR


EGLL - London Heathrow

CURRENT METAR :
  • 021450Z AUTO 25007KT 9999 BKN012 OVC026 07/05 Q1015 TEMPO SCT012

EXPIRED METARs :
  • 021420Z AUTO 24008KT 9999 SCT013 BKN018 OVC026 07/04 Q1015 TEMPO BKN012
  • 021350Z AUTO 24007KT 210V270 9999 BKN013 OVC025 07/03 Q1015 TEMPO BKN015
  • 021320Z AUTO 22005KT 9999 FEW018 OVC024 07/03 Q1016 NOSIG
  • 021250Z AUTO 20004KT 140V250 9999 OVC030 06/03 Q1017
  • 021220Z AUTO 22004KT 170V270 9999 BKN040 06/02 Q1017 NOSIG

TAF TAF EGLL
Valid from the 02 at 12:00 until the 03 at 18:00 UTC


021055Z 0212/0318 23005KT 9999 BKN025
TEMPO 0213/0216 BKN007
PROB40
TEMPO 0216/0219 7000 -RA BKN006
BECMG 0303/0306 17010KT
TEMPO 0308/0318 4000 +RADZ BKN006



MET'MAP, your aeronautical weather chart ! - Copyright ORBIFLY December 2007 - Disclaimer

ORBIFLY MET'MAP TEAM :

Programming & Development : Alexandra Zaïnal
Concept & original design : Baudouin d'Aumeries
Assistance for programming : Marc-Olivier Méhu
Technical & hardware support : Manuel Goepfert

Contact : metmap@orbifly.com




SOURCES & CREDITS :

   NOAA